sensor_id;sensor_type;location;lat;lon;timestamp;pressure;altitude;pressure_sealevel;temperature;humidity
30819;BME280;17546;42.674;23.284;2022-09-03T00:00:17;94722.38;;;23.36;52.56
30819;BME280;17546;42.674;23.284;2022-09-03T00:03:03;94720.91;;;23.35;52.26
30819;BME280;17546;42.674;23.284;2022-09-03T00:05:37;94722.28;;;22.92;52.97
30819;BME280;17546;42.674;23.284;2022-09-03T00:08:14;94723.94;;;22.95;53.35
30819;BME280;17546;42.674;23.284;2022-09-03T00:10:45;94724.31;;;23.34;52.37
30819;BME280;17546;42.674;23.284;2022-09-03T00:13:49;94731.19;;;23.40;51.67
30819;BME280;17546;42.674;23.284;2022-09-03T00:16:07;94721.13;;;22.95;53.08
30819;BME280;17546;42.674;23.284;2022-09-03T00:18:34;94726.06;;;23.29;52.47
30819;BME280;17546;42.674;23.284;2022-09-03T00:21:10;94722.94;;;22.82;53.02
30819;BME280;17546;42.674;23.284;2022-09-03T00:23:50;94726.25;;;22.88;53.21
30819;BME280;17546;42.674;23.284;2022-09-03T00:26:17;94713.84;;;23.09;53.19
30819;BME280;17546;42.674;23.284;2022-09-03T00:28:54;94708.19;;;23.26;52.38
30819;BME280;17546;42.674;23.284;2022-09-03T00:31:24;94709.09;;;23.73;51.17
30819;BME280;17546;42.674;23.284;2022-09-03T00:33:55;94715.75;;;23.86;50.89
30819;BME280;17546;42.674;23.284;2022-09-03T00:36:28;94710.28;;;23.70;51.50
30819;BME280;17546;42.674;23.284;2022-09-03T00:38:56;94709.72;;;23.99;51.20
30819;BME280;17546;42.674;23.284;2022-09-03T00:41:38;94707.13;;;24.21;50.52
30819;BME280;17546;42.674;23.284;2022-09-03T00:46:52;94707.84;;;24.11;49.94
30819;BME280;17546;42.674;23.284;2022-09-03T00:49:26;94712.59;;;23.82;50.55
30819;BME280;17546;42.674;23.284;2022-09-03T00:57:14;94714.47;;;23.52;51.17
30819;BME280;17546;42.674;23.284;2022-09-03T01:02:39;94719.13;;;22.87;52.82
30819;BME280;17546;42.674;23.284;2022-09-03T01:07:53;94722.94;;;22.65;52.64
30819;BME280;17546;42.674;23.284;2022-09-03T01:13:02;94722.63;;;22.53;52.94
30819;BME280;17546;42.674;23.284;2022-09-03T01:15:40;94719.34;;;22.14;53.92
30819;BME280;17546;42.674;23.284;2022-09-03T01:21:13;94720.88;;;22.40;53.62
30819;BME280;17546;42.674;23.284;2022-09-03T01:28:53;94736.16;;;22.80;52.59
30819;BME280;17546;42.674;23.284;2022-09-03T01:39:01;94760.66;;;22.52;52.70
30819;BME280;17546;42.674;23.284;2022-09-03T01:46:49;94751.84;;;22.48;53.04
30819;BME280;17546;42.674;23.284;2022-09-03T01:49:27;94740.38;;;22.71;52.52
30819;BME280;17546;42.674;23.284;2022-09-03T01:52:14;94736.41;;;22.24;53.73
30819;BME280;17546;42.674;23.284;2022-09-03T02:00:22;94734.63;;;23.21;51.67
30819;BME280;17546;42.674;23.284;2022-09-03T02:02:49;94732.44;;;23.12;51.90
30819;BME280;17546;42.674;23.284;2022-09-03T02:05:27;94738.72;;;22.85;52.26
30819;BME280;17546;42.674;23.284;2022-09-03T02:08:00;94732.22;;;22.75;52.22
30819;BME280;17546;42.674;23.284;2022-09-03T02:10:31;94728.19;;;22.43;53.17
30819;BME280;17546;42.674;23.284;2022-09-03T02:13:04;94748.00;;;22.03;54.01
30819;BME280;17546;42.674;23.284;2022-09-03T02:15:31;94740.47;;;21.73;54.51
30819;BME280;17546;42.674;23.284;2022-09-03T02:17:59;94741.63;;;21.70;54.94
30819;BME280;17546;42.674;23.284;2022-09-03T02:20:33;94740.22;;;21.86;54.74
30819;BME280;17546;42.674;23.284;2022-09-03T02:22:59;94746.56;;;21.94;54.24
30819;BME280;17546;42.674;23.284;2022-09-03T02:25:28;94732.66;;;22.21;53.83
30819;BME280;17546;42.674;23.284;2022-09-03T02:27:54;94742.25;;;22.68;52.67
30819;BME280;17546;42.674;23.284;2022-09-03T02:30:19;94738.19;;;22.62;52.65
30819;BME280;17546;42.674;23.284;2022-09-03T02:32:45;94756.31;;;22.76;52.14
30819;BME280;17546;42.674;23.284;2022-09-03T02:35:11;94746.13;;;22.98;52.08
30819;BME280;17546;42.674;23.284;2022-09-03T02:37:36;94752.47;;;22.64;52.25
30819;BME280;17546;42.674;23.284;2022-09-03T02:40:02;94751.66;;;22.71;52.44
30819;BME280;17546;42.674;23.284;2022-09-03T02:42:32;94743.41;;;23.08;52.01
30819;BME280;17546;42.674;23.284;2022-09-03T02:45:04;94753.47;;;22.01;53.45
30819;BME280;17546;42.674;23.284;2022-09-03T02:47:32;94757.50;;;22.48;53.13
30819;BME280;17546;42.674;23.284;2022-09-03T02:49:59;94760.94;;;22.39;52.89
30819;BME280;17546;42.674;23.284;2022-09-03T02:52:25;94758.59;;;22.53;52.87
30819;BME280;17546;42.674;23.284;2022-09-03T02:54:50;94772.06;;;22.04;53.87
30819;BME280;17546;42.674;23.284;2022-09-03T02:57:15;94766.13;;;22.25;53.47
30819;BME280;17546;42.674;23.284;2022-09-03T02:59:41;94769.47;;;21.98;53.78
30819;BME280;17546;42.674;23.284;2022-09-03T03:02:08;94765.31;;;21.99;54.08
30819;BME280;17546;42.674;23.284;2022-09-03T03:04:34;94766.47;;;21.96;53.89
30819;BME280;17546;42.674;23.284;2022-09-03T03:06:59;94762.41;;;22.22;53.52
30819;BME280;17546;42.674;23.284;2022-09-03T03:09:24;94761.28;;;22.68;52.33
30819;BME280;17546;42.674;23.284;2022-09-03T03:11:50;94753.84;;;22.80;51.83
30819;BME280;17546;42.674;23.284;2022-09-03T03:14:16;94748.84;;;22.88;51.51
30819;BME280;17546;42.674;23.284;2022-09-03T03:16:42;94752.91;;;23.03;51.17
30819;BME280;17546;42.674;23.284;2022-09-03T03:19:08;94753.81;;;23.05;51.24
30819;BME280;17546;42.674;23.284;2022-09-03T03:21:33;94739.34;;;23.19;50.96
30819;BME280;17546;42.674;23.284;2022-09-03T03:23:59;94747.47;;;23.49;50.58
30819;BME280;17546;42.674;23.284;2022-09-03T03:26:25;94746.56;;;23.64;49.75
30819;BME280;17546;42.674;23.284;2022-09-03T03:28:54;94753.13;;;23.49;49.92
30819;BME280;17546;42.674;23.284;2022-09-03T03:31:21;94756.22;;;23.61;50.08
30819;BME280;17546;42.674;23.284;2022-09-03T03:33:53;94756.34;;;23.81;49.37
30819;BME280;17546;42.674;23.284;2022-09-03T03:36:18;94753.28;;;23.86;49.34
30819;BME280;17546;42.674;23.284;2022-09-03T03:38:44;94746.91;;;23.96;49.02
30819;BME280;17546;42.674;23.284;2022-09-03T03:41:11;94758.69;;;23.75;49.55
30819;BME280;17546;42.674;23.284;2022-09-03T03:43:37;94759.59;;;23.95;49.39
30819;BME280;17546;42.674;23.284;2022-09-03T03:46:03;94747.56;;;24.04;49.09
30819;BME280;17546;42.674;23.284;2022-09-03T03:48:29;94753.56;;;24.08;49.07
30819;BME280;17546;42.674;23.284;2022-09-03T03:50:58;94758.06;;;24.21;48.66
30819;BME280;17546;42.674;23.284;2022-09-03T03:53:44;94754.22;;;24.26;48.37
30819;BME280;17546;42.674;23.284;2022-09-03T03:56:10;94757.75;;;24.17;48.26
30819;BME280;17546;42.674;23.284;2022-09-03T03:58:37;94761.97;;;23.98;48.92
30819;BME280;17546;42.674;23.284;2022-09-03T04:01:10;94765.75;;;23.83;48.90
30819;BME280;17546;42.674;23.284;2022-09-03T04:03:36;94769.34;;;23.84;49.04
30819;BME280;17546;42.674;23.284;2022-09-03T04:06:02;94764.09;;;23.45;50.00
30819;BME280;17546;42.674;23.284;2022-09-03T04:08:28;94762.19;;;23.48;49.66
30819;BME280;17546;42.674;23.284;2022-09-03T04:10:58;94761.19;;;23.01;50.96
30819;BME280;17546;42.674;23.284;2022-09-03T04:13:28;94751.03;;;22.98;50.82
30819;BME280;17546;42.674;23.284;2022-09-03T04:15:58;94751.16;;;22.65;51.57
30819;BME280;17546;42.674;23.284;2022-09-03T04:18:24;94757.81;;;22.77;51.90
30819;BME280;17546;42.674;23.284;2022-09-03T04:20:49;94753.22;;;23.07;51.16
30819;BME280;17546;42.674;23.284;2022-09-03T04:23:14;94759.56;;;23.15;50.79
30819;BME280;17546;42.674;23.284;2022-09-03T04:25:40;94759.56;;;23.15;51.01
30819;BME280;17546;42.674;23.284;2022-09-03T04:28:06;94757.31;;;22.71;52.08
30819;BME280;17546;42.674;23.284;2022-09-03T04:30:31;94762.97;;;22.71;51.76
30819;BME280;17546;42.674;23.284;2022-09-03T04:32:56;94767.66;;;22.94;51.52
30819;BME280;17546;42.674;23.284;2022-09-03T04:35:23;94772.22;;;22.64;52.29
30819;BME280;17546;42.674;23.284;2022-09-03T04:37:56;94777.50;;;22.42;52.57
30819;BME280;17546;42.674;23.284;2022-09-03T04:40:21;94776.69;;;22.17;53.39
30819;BME280;17546;42.674;23.284;2022-09-03T04:42:47;94781.84;;;21.62;54.88
30819;BME280;17546;42.674;23.284;2022-09-03T04:45:12;94787.97;;;21.84;54.52
30819;BME280;17546;42.674;23.284;2022-09-03T04:47:42;94787.72;;;21.49;55.20
30819;BME280;17546;42.674;23.284;2022-09-03T04:50:09;94798.19;;;21.64;54.65
30819;BME280;17546;42.674;23.284;2022-09-03T04:52:36;94808.22;;;21.42;55.30
30819;BME280;17546;42.674;23.284;2022-09-03T04:55:03;94813.78;;;21.65;54.71
30819;BME280;17546;42.674;23.284;2022-09-03T04:57:28;94807.25;;;21.47;54.90
30819;BME280;17546;42.674;23.284;2022-09-03T04:59:59;94812.91;;;21.32;55.16
30819;BME280;17546;42.674;23.284;2022-09-03T05:02:24;94814.00;;;21.52;54.87
30819;BME280;17546;42.674;23.284;2022-09-03T05:04:49;94812.03;;;21.77;53.98
30819;BME280;17546;42.674;23.284;2022-09-03T05:07:15;94823.41;;;21.54;54.86
30819;BME280;17546;42.674;23.284;2022-09-03T05:09:40;94823.81;;;21.43;55.29
30819;BME280;17546;42.674;23.284;2022-09-03T05:12:06;94826.06;;;21.44;55.32
30819;BME280;17546;42.674;23.284;2022-09-03T05:14:31;94826.56;;;21.66;54.65
30819;BME280;17546;42.674;23.284;2022-09-03T05:16:56;94822.16;;;21.80;54.49
30819;BME280;17546;42.674;23.284;2022-09-03T05:19:21;94825.75;;;22.29;53.42
30819;BME280;17546;42.674;23.284;2022-09-03T05:21:47;94823.31;;;22.25;53.36
30819;BME280;17546;42.674;23.284;2022-09-03T05:24:12;94828.69;;;22.39;53.17
30819;BME280;17546;42.674;23.284;2022-09-03T05:26:39;94823.44;;;21.95;54.19
30819;BME280;17546;42.674;23.284;2022-09-03T05:29:04;94827.63;;;22.19;54.21
30819;BME280;17546;42.674;23.284;2022-09-03T05:31:34;94832.72;;;21.80;54.49
30819;BME280;17546;42.674;23.284;2022-09-03T05:34:01;94829.31;;;22.55;52.93
30819;BME280;17546;42.674;23.284;2022-09-03T05:36:28;94832.72;;;22.78;52.02
30819;BME280;17546;42.674;23.284;2022-09-03T05:38:53;94831.97;;;23.03;51.55
30819;BME280;17546;42.674;23.284;2022-09-03T05:41:20;94836.56;;;22.40;52.56
30819;BME280;17546;42.674;23.284;2022-09-03T05:43:49;94829.75;;;22.51;52.31
30819;BME280;17546;42.674;23.284;2022-09-03T05:46:23;94835.09;;;22.89;51.73
30819;BME280;17546;42.674;23.284;2022-09-03T05:48:54;94845.06;;;22.65;52.01
30819;BME280;17546;42.674;23.284;2022-09-03T05:51:19;94835.69;;;22.30;52.54
30819;BME280;17546;42.674;23.284;2022-09-03T05:53:45;94833.59;;;21.50;54.00
30819;BME280;17546;42.674;23.284;2022-09-03T05:56:12;94836.44;;;21.90;53.37
30819;BME280;17546;42.674;23.284;2022-09-03T05:58:41;94840.28;;;21.70;53.72
30819;BME280;17546;42.674;23.284;2022-09-03T06:01:10;94840.72;;;21.99;53.11
30819;BME280;17546;42.674;23.284;2022-09-03T06:03:36;94840.78;;;22.57;52.09
30819;BME280;17546;42.674;23.284;2022-09-03T06:06:02;94840.31;;;23.18;51.04
30819;BME280;17546;42.674;23.284;2022-09-03T06:08:28;94841.56;;;23.25;50.65
30819;BME280;17546;42.674;23.284;2022-09-03T06:10:57;94844.00;;;23.28;49.86
30819;BME280;17546;42.674;23.284;2022-09-03T06:13:23;94851.81;;;23.38;49.70
30819;BME280;17546;42.674;23.284;2022-09-03T06:15:48;94846.66;;;22.76;50.81
30819;BME280;17546;42.674;23.284;2022-09-03T06:18:13;94846.00;;;23.36;49.89
30819;BME280;17546;42.674;23.284;2022-09-03T06:20:39;94849.72;;;22.70;50.31
30819;BME280;17546;42.674;23.284;2022-09-03T06:23:04;94846.09;;;22.78;51.02
30819;BME280;17546;42.674;23.284;2022-09-03T06:25:29;94841.97;;;23.21;49.99
30819;BME280;17546;42.674;23.284;2022-09-03T06:27:56;94851.22;;;23.22;49.41
30819;BME280;17546;42.674;23.284;2022-09-03T06:30:21;94849.22;;;23.32;49.28
30819;BME280;17546;42.674;23.284;2022-09-03T06:32:48;94843.84;;;23.01;50.03
30819;BME280;17546;42.674;23.284;2022-09-03T06:35:16;94846.69;;;23.01;50.17
30819;BME280;17546;42.674;23.284;2022-09-03T06:37:41;94851.41;;;23.24;49.34
30819;BME280;17546;42.674;23.284;2022-09-03T06:40:07;94857.00;;;23.66;48.65
30819;BME280;17546;42.674;23.284;2022-09-03T06:42:40;94854.50;;;23.88;48.27
30819;BME280;17546;42.674;23.284;2022-09-03T06:45:09;94856.16;;;23.91;48.27
30819;BME280;17546;42.674;23.284;2022-09-03T06:47:34;94853.59;;;23.85;48.16
30819;BME280;17546;42.674;23.284;2022-09-03T06:50:01;94859.03;;;24.18;47.87
30819;BME280;17546;42.674;23.284;2022-09-03T06:52:27;94853.50;;;23.76;47.85
30819;BME280;17546;42.674;23.284;2022-09-03T06:54:56;94856.56;;;23.52;48.89
30819;BME280;17546;42.674;23.284;2022-09-03T06:57:22;94863.31;;;23.92;48.40
30819;BME280;17546;42.674;23.284;2022-09-03T06:59:47;94865.13;;;24.15;47.44
30819;BME280;17546;42.674;23.284;2022-09-03T07:02:13;94861.63;;;23.54;48.66
30819;BME280;17546;42.674;23.284;2022-09-03T07:04:38;94865.38;;;22.64;50.82
30819;BME280;17546;42.674;23.284;2022-09-03T07:07:04;94865.97;;;23.13;50.18
30819;BME280;17546;42.674;23.284;2022-09-03T07:09:29;94875.13;;;22.70;50.79
30819;BME280;17546;42.674;23.284;2022-09-03T07:11:56;94871.88;;;23.07;50.30
30819;BME280;17546;42.674;23.284;2022-09-03T07:14:21;94873.66;;;23.20;49.98
30819;BME280;17546;42.674;23.284;2022-09-03T07:16:47;94865.22;;;23.37;50.02
30819;BME280;17546;42.674;23.284;2022-09-03T07:19:13;94866.06;;;24.00;48.44
30819;BME280;17546;42.674;23.284;2022-09-03T07:21:39;94879.44;;;24.17;47.81
30819;BME280;17546;42.674;23.284;2022-09-03T07:24:06;94877.75;;;24.13;48.21
30819;BME280;17546;42.674;23.284;2022-09-03T07:26:35;94874.09;;;24.21;47.49
30819;BME280;17546;42.674;23.284;2022-09-03T07:29:02;94885.41;;;24.21;47.55
30819;BME280;17546;42.674;23.284;2022-09-03T07:31:28;94889.00;;;24.66;46.75
30819;BME280;17546;42.674;23.284;2022-09-03T07:33:58;94882.94;;;24.07;47.19
30819;BME280;17546;42.674;23.284;2022-09-03T07:36:25;94889.94;;;23.89;47.47
30819;BME280;17546;42.674;23.284;2022-09-03T07:38:53;94885.22;;;23.31;48.98
30819;BME280;17546;42.674;23.284;2022-09-03T07:41:19;94892.94;;;23.91;48.30
30819;BME280;17546;42.674;23.284;2022-09-03T07:43:46;94895.94;;;24.55;46.86
30819;BME280;17546;42.674;23.284;2022-09-03T07:46:15;94893.34;;;24.05;47.97
30819;BME280;17546;42.674;23.284;2022-09-03T07:48:45;94899.34;;;24.53;47.22
30819;BME280;17546;42.674;23.284;2022-09-03T07:51:11;94890.09;;;24.08;47.58
30819;BME280;17546;42.674;23.284;2022-09-03T07:53:36;94897.09;;;23.30;49.26
30819;BME280;17546;42.674;23.284;2022-09-03T07:56:04;94893.53;;;23.29;49.38
30819;BME280;17546;42.674;23.284;2022-09-03T07:58:30;94895.13;;;24.27;48.22
30819;BME280;17546;42.674;23.284;2022-09-03T08:00:56;94898.13;;;24.74;47.38
30819;BME280;17546;42.674;23.284;2022-09-03T08:03:22;94897.59;;;25.22;45.90
30819;BME280;17546;42.674;23.284;2022-09-03T08:05:47;94898.78;;;25.19;45.34
30819;BME280;17546;42.674;23.284;2022-09-03T08:08:13;94898.88;;;25.58;45.26
30819;BME280;17546;42.674;23.284;2022-09-03T08:10:39;94901.06;;;25.30;45.68
30819;BME280;17546;42.674;23.284;2022-09-03T08:13:04;94898.53;;;25.34;45.62
30819;BME280;17546;42.674;23.284;2022-09-03T08:15:31;94897.28;;;25.18;45.54
30819;BME280;17546;42.674;23.284;2022-09-03T08:17:56;94906.53;;;24.37;46.57
30819;BME280;17546;42.674;23.284;2022-09-03T08:20:23;94903.19;;;24.48;46.67
30819;BME280;17546;42.674;23.284;2022-09-03T08:22:48;94902.16;;;25.08;45.91
30819;BME280;17546;42.674;23.284;2022-09-03T08:25:14;94903.25;;;24.85;46.76
30819;BME280;17546;42.674;23.284;2022-09-03T08:27:39;94900.25;;;24.83;46.95
30819;BME280;17546;42.674;23.284;2022-09-03T08:30:05;94901.56;;;25.66;45.33
30819;BME280;17546;42.674;23.284;2022-09-03T08:32:33;94893.50;;;25.43;45.27
30819;BME280;17546;42.674;23.284;2022-09-03T08:35:01;94896.97;;;25.80;44.46
30819;BME280;17546;42.674;23.284;2022-09-03T08:37:26;94899.69;;;25.88;44.05
30819;BME280;17546;42.674;23.284;2022-09-03T08:39:53;94898.66;;;25.93;43.40
30819;BME280;17546;42.674;23.284;2022-09-03T08:45:04;94893.25;;;26.36;42.15
30819;BME280;17546;42.674;23.284;2022-09-03T08:47:32;94899.16;;;26.79;42.34
30819;BME280;17546;42.674;23.284;2022-09-03T08:53:02;94890.09;;;25.83;44.04
30819;BME280;17546;42.674;23.284;2022-09-03T08:58:10;94885.75;;;25.72;43.58
30819;BME280;17546;42.674;23.284;2022-09-03T09:05:40;94895.31;;;26.45;42.80
30819;BME280;17546;42.674;23.284;2022-09-03T09:08:31;94896.97;;;26.48;43.04
30819;BME280;17546;42.674;23.284;2022-09-03T09:10:58;94898.31;;;26.47;42.64
30819;BME280;17546;42.674;23.284;2022-09-03T09:13:27;94906.22;;;26.58;43.02
30819;BME280;17546;42.674;23.284;2022-09-03T09:16:02;94898.63;;;26.32;42.87
30819;BME280;17546;42.674;23.284;2022-09-03T09:21:16;94905.91;;;26.74;42.85
30819;BME280;17546;42.674;23.284;2022-09-03T09:23:43;94903.72;;;26.14;42.87
30819;BME280;17546;42.674;23.284;2022-09-03T09:26:10;94910.09;;;26.53;42.83
30819;BME280;17546;42.674;23.284;2022-09-03T09:28:38;94911.47;;;26.52;42.79
30819;BME280;17546;42.674;23.284;2022-09-03T09:31:04;94903.25;;;25.78;43.50
30819;BME280;17546;42.674;23.284;2022-09-03T09:33:31;94906.88;;;26.18;43.42
30819;BME280;17546;42.674;23.284;2022-09-03T09:35:58;94907.63;;;26.09;43.20
30819;BME280;17546;42.674;23.284;2022-09-03T09:38:28;94911.94;;;26.10;42.84
30819;BME280;17546;42.674;23.284;2022-09-03T09:40:53;94901.19;;;25.98;43.21
30819;BME280;17546;42.674;23.284;2022-09-03T09:43:21;94896.25;;;26.18;42.60
30819;BME280;17546;42.674;23.284;2022-09-03T09:45:47;94906.81;;;26.47;43.19
30819;BME280;17546;42.674;23.284;2022-09-03T09:48:20;94907.28;;;25.75;44.34
30819;BME280;17546;42.674;23.284;2022-09-03T09:50:47;94898.06;;;26.04;43.64
30819;BME280;17546;42.674;23.284;2022-09-03T09:53:12;94915.97;;;26.36;43.32
30819;BME280;17546;42.674;23.284;2022-09-03T09:55:52;94905.06;;;26.42;43.53
30819;BME280;17546;42.674;23.284;2022-09-03T09:58:18;94913.00;;;26.05;43.68
30819;BME280;17546;42.674;23.284;2022-09-03T10:00:59;94909.84;;;26.20;44.29
30819;BME280;17546;42.674;23.284;2022-09-03T10:03:26;94917.59;;;26.68;43.23
30819;BME280;17546;42.674;23.284;2022-09-03T10:06:08;94919.25;;;26.62;42.71
30819;BME280;17546;42.674;23.284;2022-09-03T10:09:16;94904.41;;;26.73;42.54
30819;BME280;17546;42.674;23.284;2022-09-03T10:11:46;94911.13;;;27.18;41.30
30819;BME280;17546;42.674;23.284;2022-09-03T10:16:44;94901.31;;;27.41;41.07
30819;BME280;17546;42.674;23.284;2022-09-03T10:19:31;94907.75;;;27.94;40.45
30819;BME280;17546;42.674;23.284;2022-09-03T10:22:02;94905.38;;;27.38;40.72
30819;BME280;17546;42.674;23.284;2022-09-03T10:24:39;94903.53;;;27.11;40.89
30819;BME280;17546;42.674;23.284;2022-09-03T10:27:09;94898.06;;;28.09;41.10
30819;BME280;17546;42.674;23.284;2022-09-03T10:29:36;94896.50;;;28.51;39.56
30819;BME280;17546;42.674;23.284;2022-09-03T10:50:21;94892.25;;;28.97;38.67
30819;BME280;17546;42.674;23.284;2022-09-03T10:57:47;94896.94;;;27.71;38.95
30819;BME280;17546;42.674;23.284;2022-09-03T11:00:15;94893.81;;;28.32;39.62
30819;BME280;17546;42.674;23.284;2022-09-03T11:03:00;94903.53;;;27.95;38.99
30819;BME280;17546;42.674;23.284;2022-09-03T11:05:36;94897.56;;;28.46;38.98
30819;BME280;17546;42.674;23.284;2022-09-03T11:08:11;94890.22;;;28.76;38.71
30819;BME280;17546;42.674;23.284;2022-09-03T11:10:44;94894.06;;;28.69;39.15
30819;BME280;17546;42.674;23.284;2022-09-03T11:13:19;94898.00;;;28.31;38.81
30819;BME280;17546;42.674;23.284;2022-09-03T11:15:56;94897.41;;;28.11;39.50
30819;BME280;17546;42.674;23.284;2022-09-03T11:20:49;94903.81;;;28.54;38.38
30819;BME280;17546;42.674;23.284;2022-09-03T11:23:15;94892.88;;;28.51;39.18
30819;BME280;17546;42.674;23.284;2022-09-03T11:25:45;94895.28;;;28.33;39.34
30819;BME280;17546;42.674;23.284;2022-09-03T11:30:47;94901.63;;;28.64;38.82
30819;BME280;17546;42.674;23.284;2022-09-03T11:33:16;94903.41;;;28.93;38.51
30819;BME280;17546;42.674;23.284;2022-09-03T11:35:43;94897.53;;;28.68;38.31
30819;BME280;17546;42.674;23.284;2022-09-03T11:40:42;94893.50;;;29.53;37.87
30819;BME280;17546;42.674;23.284;2022-09-03T11:46:00;94884.06;;;28.80;37.55
30819;BME280;17546;42.674;23.284;2022-09-03T11:48:30;94895.31;;;28.78;38.20
30819;BME280;17546;42.674;23.284;2022-09-03T11:50:57;94893.94;;;28.79;38.40
30819;BME280;17546;42.674;23.284;2022-09-03T11:53:24;94887.38;;;28.88;38.49
30819;BME280;17546;42.674;23.284;2022-09-03T11:55:53;94887.50;;;28.90;38.22
30819;BME280;17546;42.674;23.284;2022-09-03T11:58:29;94899.34;;;28.51;37.54
30819;BME280;17546;42.674;23.284;2022-09-03T12:00:54;94902.47;;;29.24;37.68
30819;BME280;17546;42.674;23.284;2022-09-03T12:03:24;94897.31;;;28.87;36.77
30819;BME280;17546;42.674;23.284;2022-09-03T12:08:33;94879.53;;;29.22;36.63
30819;BME280;17546;42.674;23.284;2022-09-03T12:16:28;94887.09;;;29.17;36.24
30819;BME280;17546;42.674;23.284;2022-09-03T12:19:00;94873.41;;;29.04;36.25
30819;BME280;17546;42.674;23.284;2022-09-03T12:21:28;94880.25;;;29.34;36.35
30819;BME280;17546;42.674;23.284;2022-09-03T12:23:54;94874.38;;;28.85;37.29
30819;BME280;17546;42.674;23.284;2022-09-03T12:26:23;94873.59;;;28.73;37.23
30819;BME280;17546;42.674;23.284;2022-09-03T12:28:50;94876.25;;;28.80;37.40
30819;BME280;17546;42.674;23.284;2022-09-03T12:31:20;94877.88;;;29.19;37.21
30819;BME280;17546;42.674;23.284;2022-09-03T12:36:15;94874.06;;;29.26;37.06
30819;BME280;17546;42.674;23.284;2022-09-03T12:38:41;94868.69;;;28.85;37.18
30819;BME280;17546;42.674;23.284;2022-09-03T12:41:18;94878.16;;;29.23;36.83
30819;BME280;17546;42.674;23.284;2022-09-03T12:43:49;94876.00;;;29.00;36.80
30819;BME280;17546;42.674;23.284;2022-09-03T12:46:15;94871.81;;;29.24;36.18
30819;BME280;17546;42.674;23.284;2022-09-03T12:49:02;94875.16;;;29.21;36.29
30819;BME280;17546;42.674;23.284;2022-09-03T12:51:38;94867.34;;;29.57;35.97
30819;BME280;17546;42.674;23.284;2022-09-03T12:54:04;94871.94;;;29.27;36.94
30819;BME280;17546;42.674;23.284;2022-09-03T12:56:33;94873.69;;;29.20;36.84
30819;BME280;17546;42.674;23.284;2022-09-03T12:59:10;94861.88;;;28.90;37.15
30819;BME280;17546;42.674;23.284;2022-09-03T13:01:42;94860.59;;;28.70;37.85
30819;BME280;17546;42.674;23.284;2022-09-03T13:04:10;94853.56;;;28.94;37.59
30819;BME280;17546;42.674;23.284;2022-09-03T13:09:24;94850.09;;;28.84;38.09
30819;BME280;17546;42.674;23.284;2022-09-03T13:11:51;94855.56;;;28.80;37.04
30819;BME280;17546;42.674;23.284;2022-09-03T13:14:16;94849.59;;;28.76;37.07
30819;BME280;17546;42.674;23.284;2022-09-03T13:32:05;94826.53;;;29.42;35.88
30819;BME280;17546;42.674;23.284;2022-09-03T13:34:39;94838.09;;;28.97;36.35
30819;BME280;17546;42.674;23.284;2022-09-03T13:39:47;94831.50;;;28.83;36.22
30819;BME280;17546;42.674;23.284;2022-09-03T13:42:17;94834.47;;;28.85;36.22
30819;BME280;17546;42.674;23.284;2022-09-03T13:44:49;94835.25;;;28.97;35.67
30819;BME280;17546;42.674;23.284;2022-09-03T13:47:33;94833.50;;;29.28;35.27
30819;BME280;17546;42.674;23.284;2022-09-03T13:50:18;94833.50;;;29.16;35.26
30819;BME280;17546;42.674;23.284;2022-09-03T13:53:07;94821.75;;;28.41;36.02
30819;BME280;17546;42.674;23.284;2022-09-03T13:55:45;94833.22;;;28.76;35.95
30819;BME280;17546;42.674;23.284;2022-09-03T14:00:48;94831.97;;;28.56;36.35
30819;BME280;17546;42.674;23.284;2022-09-03T14:03:35;94839.81;;;28.91;35.99
30819;BME280;17546;42.674;23.284;2022-09-03T14:11:44;94838.56;;;28.94;36.51
30819;BME280;17546;42.674;23.284;2022-09-03T14:17:22;94837.47;;;29.46;35.91
30819;BME280;17546;42.674;23.284;2022-09-03T14:22:15;94837.47;;;29.34;35.65
30819;BME280;17546;42.674;23.284;2022-09-03T14:27:08;94829.47;;;29.56;36.58
30819;BME280;17546;42.674;23.284;2022-09-03T14:29:35;94841.44;;;29.29;36.55
30819;BME280;17546;42.674;23.284;2022-09-03T14:40:15;94831.81;;;29.72;35.64
30819;BME280;17546;42.674;23.284;2022-09-03T14:50:46;94835.06;;;29.54;35.62
30819;BME280;17546;42.674;23.284;2022-09-03T15:08:38;94839.81;;;29.38;36.13
30819;BME280;17546;42.674;23.284;2022-09-03T15:11:14;94839.91;;;28.69;36.51
30819;BME280;17546;42.674;23.284;2022-09-03T15:29:16;94844.09;;;28.56;36.52
30819;BME280;17546;42.674;23.284;2022-09-03T15:34:33;94847.75;;;27.80;37.04
30819;BME280;17546;42.674;23.284;2022-09-03T15:37:01;94839.84;;;28.00;37.19
30819;BME280;17546;42.674;23.284;2022-09-03T15:39:34;94852.06;;;27.91;37.42
30819;BME280;17546;42.674;23.284;2022-09-03T15:42:06;94862.13;;;27.82;37.25
30819;BME280;17546;42.674;23.284;2022-09-03T15:44:34;94860.75;;;27.62;37.91
30819;BME280;17546;42.674;23.284;2022-09-03T15:47:06;94856.97;;;28.12;37.14
30819;BME280;17546;42.674;23.284;2022-09-03T15:57:32;94851.41;;;28.14;37.50
30819;BME280;17546;42.674;23.284;2022-09-03T16:00:02;94864.78;;;28.23;37.07
30819;BME280;17546;42.674;23.284;2022-09-03T16:07:37;94866.16;;;28.22;36.57
30819;BME280;17546;42.674;23.284;2022-09-03T16:10:09;94869.00;;;28.22;36.49
30819;BME280;17546;42.674;23.284;2022-09-03T16:14:29;94878.53;;;28.49;36.31
30819;BME280;17546;42.674;23.284;2022-09-03T16:19:52;94886.50;;;28.74;35.60
30819;BME280;17546;42.674;23.284;2022-09-03T16:22:28;94889.63;;;28.78;36.00
30819;BME280;17546;42.674;23.284;2022-09-03T16:25:02;94891.94;;;28.70;35.35
30819;BME280;17546;42.674;23.284;2022-09-03T16:27:34;94886.66;;;28.42;36.39
30819;BME280;17546;42.674;23.284;2022-09-03T16:30:12;94892.09;;;28.38;36.42